• Join FlightAware (Why Join?)
  • Login
  • US Flag 
04:44PM EDT


 

Airport Tracker/Info


-or-


 

Live Flight TrackerFlight Track Log ✈ N488VC ✈ 15-Apr-2013 ✈ KBDL - KHPN

Flight Track Log - Related Links

Times and Time Zones

All times are in EDT time to prevent confusion due to time zone crossing. See the N488VC flight status page for this flight to view local times or setup timezone preferences in your user account.

Time Position Orientation Groundspeed Altitude Reporting Facility
EDT Latitude Longitude Course Direction KTS MPH feet Rate Location/Type
06:58PM 41.9228 -72.6744 218° Southwest 175 201 1,200  Level Boston Center
06:59PM 41.8936 -72.7050 218° Southwest 199 229 3,100 2,340 Climbing Boston Center
07:01PM 41.8786 -72.8833 264° West 281 323 8,000 2,040 Climbing Boston Center
07:02PM 41.8447 -72.9781 244° Southwest 281 323 9,200 1,020 Climbing Boston Center
07:03PM 41.7961 -73.0861 239° Southwest 303 349 10,100 420 Climbing Boston Center
07:04PM 41.7497 -73.1886 239° Southwest 323 372 10,100  Level Boston Center
07:05PM 41.7011 -73.2992 240° Southwest 345 397 10,100 -60 Level Boston Center
07:06PM 41.6458 -73.4125 237° Southwest 356 410 10,000 -420 Descending Boston Center
07:08PM 41.5833 -73.5667 242° Southwest 261 300 9,000 -1,080 Descending New York TRACON
07:09PM 41.5167 -73.6167 209° Southwest 270 311 7,100 -1,980 Descending New York TRACON
07:10PM 41.4500 -73.6667 209° Southwest 268 308 5,100 -1,920 Descending New York TRACON
07:11PM 41.3833 -73.7000 201° Southwest 258 297 3,300 -1,020 Descending New York TRACON
07:12PM 41.3167 -73.7333 201° Southwest 231 266 3,100 -480 Descending New York TRACON
07:13PM 41.2667 -73.7833 217° Southwest 232 267 2,400 -540 Descending New York TRACON
07:14PM 41.2000 -73.7833 180° South 199 229 2,000 -240 Descending New York TRACON
07:15PM 41.1667 -73.7833 180° South 166 191 2,000 -300 Level New York TRACON
07:16PM 41.1167 -73.7500 153° Southeast 135 155 1,500 -600 Descending New York TRACON
07:17PM 41.1000 -73.7333 143° Southeast 125 144 900 -720 Descending New York TRACON
07:19PM 41.0669 -73.7076 246° West  Level Estimated
07:26PM 41.0667 -73.7000 246° West  Level FlightAware Approximate